Time;durP1;ratioP1;P1;durP2;ratioP2;P2;SDS_P1;SDS_P2;PMS_P1;PMS_P2;Temp;Humidity;BMP_temperature;BMP_pressure;BME280_temperature;BME280_humidity;BME280_pressure;Samples;Min_cycle;Max_cycle;Signal;HPM_P1;HPM_P2
2023/01/01 00:01:39;;;;;;;35.30;25.35;;;;;;;7.81;100.00;99870.19;5031825;28;20036;-63
2023/01/01 00:04:07;;;;;;;29.45;19.42;;;;;;;7.69;100.00;99871.75;5046175;28;20020;-60
2023/01/01 00:06:33;;;;;;;22.90;15.20;;;;;;;7.74;100.00;99881.84;5046421;28;20038;-63
2023/01/01 00:11:44;;;;;;;18.35;13.60;;;;;;;7.46;100.00;99839.53;5011057;28;20040;-60
2023/01/01 00:14:10;;;;;;;22.60;13.80;;;;;;;7.89;100.00;99922.31;5038168;28;20348;-62
2023/01/01 00:16:36;;;;;;;17.77;13.07;;;;;;;7.82;100.00;99915.84;5045042;28;20031;-61
2023/01/01 00:19:01;;;;;;;18.45;12.85;;;;;;;7.86;100.00;99901.78;5046273;28;20039;-64
2023/01/01 00:21:27;;;;;;;18.55;13.05;;;;;;;7.85;100.00;99899.31;5045413;28;20170;-64
2023/01/01 00:23:52;;;;;;;17.88;13.15;;;;;;;7.79;100.00;99908.25;5039030;28;20056;-64
2023/01/01 00:26:18;;;;;;;19.63;13.13;;;;;;;7.79;100.00;99892.72;5044749;28;20025;-63
2023/01/01 00:28:44;;;;;;;20.15;13.35;;;;;;;7.57;100.00;99850.97;5026430;28;20033;-63
2023/01/01 00:31:16;;;;;;;17.08;12.10;;;;;;;7.84;100.00;99898.44;5027864;28;20021;-67
2023/01/01 00:33:42;;;;;;;19.00;14.10;;;;;;;7.81;100.00;99875.34;5062707;28;20427;-66
2023/01/01 00:36:13;;;;;;;18.42;13.43;;;;;;;7.76;100.00;99885.16;5040762;28;20040;-66
2023/01/01 00:38:39;;;;;;;20.23;13.80;;;;;;;7.18;100.00;99813.72;5040626;28;20040;-64
2023/01/01 00:41:04;;;;;;;22.77;15.50;;;;;;;7.62;100.00;99886.00;5047198;28;20099;-63
2023/01/01 00:43:30;;;;;;;20.67;14.32;;;;;;;7.56;100.00;99881.22;5063024;28;20198;-66
2023/01/01 00:45:56;;;;;;;23.52;14.63;;;;;;;7.64;100.00;99888.50;5039967;28;20029;-63
2023/01/01 00:48:21;;;;;;;20.55;14.65;;;;;;;7.55;100.00;99883.91;5042243;28;20043;-63
2023/01/01 00:50:48;;;;;;;21.95;15.38;;;;;;;7.54;100.00;99897.75;5063533;28;20035;-65
2023/01/01 00:53:13;;;;;;;21.65;15.27;;;;;;;7.57;100.00;99882.88;5058384;28;20043;-63
2023/01/01 00:55:39;;;;;;;21.88;15.30;;;;;;;7.52;100.00;99890.09;5042877;28;20123;-63
2023/01/01 00:58:05;;;;;;;22.27;14.23;;;;;;;7.55;100.00;99889.06;5047350;28;20052;-64
2023/01/01 01:00:30;;;;;;;21.77;14.25;;;;;;;7.54;100.00;99874.47;5065580;28;20078;-62
2023/01/01 01:02:56;;;;;;;22.08;15.07;;;;;;;7.50;100.00;99889.34;5042311;28;20040;-63
2023/01/01 01:05:21;;;;;;;20.15;14.10;;;;;;;7.57;100.00;99885.44;5046910;28;20036;-65
2023/01/01 01:07:47;;;;;;;22.98;12.50;;;;;;;7.57;100.00;99876.88;5045116;28;20025;-65
2023/01/01 01:10:12;;;;;;;15.05;9.35;;;;;;;7.64;100.00;99884.16;5044201;28;20040;-62
2023/01/01 01:12:38;;;;;;;12.55;7.45;;;;;;;7.67;100.00;99873.63;5065026;28;20106;-69
2023/01/01 01:15:05;;;;;;;16.67;8.68;;;;;;;7.72;100.00;99882.84;5052418;28;20029;-63
2023/01/01 01:17:31;;;;;;;12.63;8.00;;;;;;;7.72;100.00;99873.34;5028853;28;20031;-63
2023/01/01 01:19:56;;;;;;;15.52;8.82;;;;;;;7.68;100.00;99869.25;5046903;28;20425;-63
2023/01/01 01:22:21;;;;;;;15.88;8.73;;;;;;;7.68;100.00;99864.09;5043913;28;20039;-66
2023/01/01 01:24:47;;;;;;;11.75;7.68;;;;;;;7.73;100.00;99869.81;5041291;28;20166;-64
2023/01/01 01:27:12;;;;;;;14.52;8.52;;;;;;;7.71;100.00;99874.25;5041796;28;20040;-63
2023/01/01 01:29:38;;;;;;;14.40;9.75;;;;;;;7.39;100.00;99817.56;5064425;28;20530;-68
2023/01/01 01:32:03;;;;;;;17.17;9.75;;;;;;;7.74;100.00;99881.84;5045855;28;20532;-62
2023/01/01 01:34:29;;;;;;;20.70;12.52;;;;;;;7.71;100.00;99879.44;5046851;28;20024;-62
2023/01/01 01:36:55;;;;;;;24.77;15.10;;;;;;;7.36;100.00;99829.88;5043594;28;20407;-62
2023/01/01 01:39:21;;;;;;;24.17;15.45;;;;;;;7.62;100.00;99872.25;5049913;28;20032;-63
2023/01/01 01:41:46;;;;;;;25.33;15.77;;;;;;;7.38;100.00;99846.94;5044961;28;20704;-67
2023/01/01 01:44:47;;;;;;;25.00;16.40;;;;;;;7.63;100.00;99873.88;5045801;28;20028;-65
2023/01/01 01:47:18;;;;;;;26.25;15.93;;;;;;;7.62;100.00;99877.41;5061026;28;20035;-64
2023/01/01 01:49:44;;;;;;;23.38;15.48;;;;;;;7.65;100.00;99872.88;5045373;28;20494;-61
2023/01/01 01:52:09;;;;;;;23.00;14.32;;;;;;;7.41;100.00;99832.97;5044960;28;20040;-63
2023/01/01 01:54:35;;;;;;;25.50;16.25;;;;;;;7.36;100.00;99804.00;5061691;28;20037;-64
2023/01/01 01:57:06;;;;;;;27.83;17.33;;;;;;;7.59;100.00;99860.31;5044751;28;20459;-62
2023/01/01 01:59:35;;;;;;;26.35;16.60;;;;;;;7.40;100.00;99816.63;5063064;28;20120;-63
2023/01/01 02:02:01;;;;;;;23.53;15.20;;;;;;;7.61;100.00;99845.53;5046609;28;20435;-65
2023/01/01 02:04:26;;;;;;;27.90;17.48;;;;;;;7.58;100.00;99843.13;5046280;28;20029;-66
2023/01/01 02:06:53;;;;;;;25.38;15.80;;;;;;;7.65;100.00;99838.41;5060696;28;20035;-61
2023/01/01 02:09:19;;;;;;;27.05;16.83;;;;;;;7.67;100.00;99850.31;5050346;28;20119;-62
2023/01/01 02:11:45;;;;;;;26.60;16.48;;;;;;;7.64;100.00;99866.03;5029497;28;20032;-68
2023/01/01 02:14:10;;;;;;;27.05;17.35;;;;;;;7.64;100.00;99853.09;5026823;28;20395;-62
2023/01/01 02:16:41;;;;;;;25.15;15.55;;;;;;;7.61;100.00;99840.34;5043899;28;20571;-62
2023/01/01 02:19:19;;;;;;;25.38;16.15;;;;;;;7.60;100.00;99837.88;5049339;28;20086;-62
2023/01/01 02:22:06;;;;;;;25.98;17.40;;;;;;;7.65;100.00;99846.19;5045311;28;20025;-63
2023/01/01 02:24:53;;;;;;;27.20;17.10;;;;;;;7.68;100.00;99841.63;5058258;28;20039;-61
2023/01/01 02:27:24;;;;;;;28.25;16.63;;;;;;;7.70;100.00;99828.56;5065109;28;20029;-61
2023/01/01 02:29:52;;;;;;;27.25;17.33;;;;;;;7.73;100.00;99828.38;5063611;28;20028;-65
2023/01/01 02:32:21;;;;;;;26.73;16.35;;;;;;;7.78;100.00;99822.94;5041207;28;20021;-62
2023/01/01 02:34:52;;;;;;;25.52;14.38;;;;;;;7.78;100.00;99823.75;5055231;28;20567;-62
2023/01/01 02:37:18;;;;;;;26.05;14.70;;;;;;;7.78;100.00;99821.16;5039581;28;20108;-59
2023/01/01 02:39:51;;;;;;;23.80;14.57;;;;;;;7.79;100.00;99816.81;5048840;28;20055;-60
2023/01/01 02:42:18;;;;;;;25.15;15.25;;;;;;;7.76;100.00;99815.25;5027139;28;20242;-64
2023/01/01 02:44:47;;;;;;;24.63;15.65;;;;;;;7.82;100.00;99814.03;5043879;28;20115;-60
2023/01/01 02:47:16;;;;;;;24.30;14.73;;;;;;;7.82;100.00;99819.22;5043617;28;20448;-62
2023/01/01 02:50:07;;;;;;;25.00;14.38;;;;;;;7.80;100.00;99811.53;5061766;28;20032;-60
2023/01/01 02:53:05;;;;;;;23.20;14.35;;;;;;;7.57;100.00;99765.56;5022971;28;20039;-61
2023/01/01 02:55:43;;;;;;;22.60;14.60;;;;;;;7.76;100.00;99802.31;5048731;28;20020;-64
2023/01/01 03:01:23;;;;;;;25.58;14.95;;;;;;;7.73;100.00;99797.31;5061513;28;20351;-62
2023/01/01 03:04:03;;;;;;;23.70;14.88;;;;;;;7.72;100.00;99777.56;5047566;28;20021;-63
2023/01/01 03:06:46;;;;;;;24.88;15.02;;;;;;;7.59;100.00;99754.19;5023326;28;20387;-63
2023/01/01 03:09:33;;;;;;;24.02;14.65;;;;;;;7.84;100.00;99792.28;5048676;28;20115;-61
2023/01/01 03:12:05;;;;;;;24.58;15.50;;;;;;;7.76;100.00;99798.88;5048730;28;20032;-59
2023/01/01 03:14:39;;;;;;;24.15;14.32;;;;;;;7.49;100.00;99766.06;5065137;28;20024;-61
2023/01/01 03:17:40;;;;;;;25.65;15.10;;;;;;;7.73;100.00;99802.50;5044209;28;20033;-60
2023/01/01 03:20:12;;;;;;;23.90;13.95;;;;;;;7.79;100.00;99807.28;4998749;28;20040;-63
2023/01/01 03:22:38;;;;;;;23.13;14.75;;;;;;;7.76;100.00;99809.22;5023687;28;20095;-62
2023/01/01 03:25:09;;;;;;;24.05;14.65;;;;;;;7.68;100.00;99813.16;5048977;28;20040;-62
2023/01/01 03:27:51;;;;;;;22.92;15.10;;;;;;;7.57;100.00;99789.69;5047826;28;20024;-60
2023/01/01 03:30:18;;;;;;;24.25;15.10;;;;;;;7.74;100.00;99811.09;5044279;28;20151;-61
2023/01/01 03:33:17;;;;;;;23.13;14.45;;;;;;;7.84;100.00;99805.22;5049023;28;20397;-60
2023/01/01 03:35:49;;;;;;;23.07;13.97;;;;;;;7.84;100.00;99801.81;5015745;28;20045;-61
2023/01/01 03:38:39;;;;;;;23.27;14.38;;;;;;;7.85;100.00;99799.13;5031633;28;20040;-62
2023/01/01 03:41:20;;;;;;;22.92;14.55;;;;;;;7.68;100.00;99776.91;5030278;28;20133;-61
2023/01/01 03:43:48;;;;;;;25.02;15.05;;;;;;;7.91;100.00;99800.50;5067116;28;20028;-60
2023/01/01 03:46:16;;;;;;;24.30;15.63;;;;;;;7.91;100.00;99797.91;5032127;28;20427;-61
2023/01/01 03:49:02;;;;;;;24.00;15.13;;;;;;;7.96;100.00;99802.78;5029565;28;20021;-61
2023/01/01 03:51:50;;;;;;;23.90;14.73;;;;;;;7.89;100.00;99804.94;5063665;28;20049;-61
2023/01/01 03:54:28;;;;;;;19.95;12.82;;;;;;;8.03;100.00;99807.50;5046171;28;20058;-63
2023/01/01 03:57:28;;;;;;;21.15;14.32;;;;;;;7.79;100.00;99783.97;5055496;28;20037;-61
2023/01/01 04:00:13;;;;;;;22.27;13.82;;;;;;;8.03;100.00;99817.84;5006464;28;20049;-61
2023/01/01 04:02:55;;;;;;;23.08;13.23;;;;;;;7.99;100.00;99810.34;5029540;28;20070;-64
2023/01/01 04:05:21;;;;;;;23.33;13.13;;;;;;;7.94;100.00;99802.06;5027670;28;20036;-62
2023/01/01 04:07:47;;;;;;;21.83;13.50;;;;;;;7.88;100.00;99804.13;5030139;28;20037;-62
2023/01/01 04:10:18;;;;;;;20.02;12.88;;;;;;;7.90;100.00;99809.19;5031490;28;20375;-61
2023/01/01 04:12:49;;;;;;;21.95;14.18;;;;;;;7.98;100.00;99812.13;5058577;28;21558;-60
2023/01/01 04:15:19;;;;;;;18.08;12.73;;;;;;;7.93;100.00;99801.22;5040113;28;20032;-59
2023/01/01 04:17:45;;;;;;;22.30;13.85;;;;;;;8.03;100.00;99811.81;5024917;28;20051;-63
2023/01/01 04:20:11;;;;;;;24.90;14.38;;;;;;;7.98;100.00;99796.59;5044277;28;20384;-61
2023/01/01 04:22:37;;;;;;;20.67;13.30;;;;;;;7.89;100.00;99805.78;5030033;28;20048;-61
2023/01/01 04:25:03;;;;;;;23.10;13.02;;;;;;;7.85;100.00;99808.69;5043119;28;20082;-61
2023/01/01 04:27:28;;;;;;;21.33;13.52;;;;;;;7.94;100.00;99802.91;5036811;28;20037;-60
2023/01/01 04:29:54;;;;;;;22.90;13.55;;;;;;;7.98;100.00;99800.94;5023871;28;20021;-60
2023/01/01 04:32:19;;;;;;;22.23;13.48;;;;;;;7.99;100.00;99820.72;5036673;28;20035;-60
2023/01/01 04:34:44;;;;;;;23.08;14.63;;;;;;;8.09;100.00;99819.22;5029856;28;20042;-62
2023/01/01 04:37:10;;;;;;;22.52;13.50;;;;;;;8.04;100.00;99816.91;5043853;28;20021;-64
2023/01/01 04:39:35;;;;;;;21.52;14.48;;;;;;;7.87;100.00;99776.56;5047426;28;20033;-60
2023/01/01 04:42:01;;;;;;;22.40;13.30;;;;;;;8.11;100.00;99817.34;5044398;28;20574;-60
2023/01/01 04:44:26;;;;;;;21.60;13.15;;;;;;;8.04;100.00;99819.50;5046513;28;20036;-65
2023/01/01 04:46:52;;;;;;;22.45;13.55;;;;;;;8.02;100.00;99817.94;5027820;28;20046;-61
2023/01/01 04:49:18;;;;;;;20.33;13.23;;;;;;;8.00;100.00;99823.22;5028060;28;20378;-60
2023/01/01 04:51:43;;;;;;;19.83;13.60;;;;;;;7.82;100.00;99788.97;5045003;28;20130;-61
2023/01/01 04:54:08;;;;;;;20.70;13.73;;;;;;;8.00;100.00;99812.03;5047487;28;20036;-61
2023/01/01 04:56:34;;;;;;;21.67;13.93;;;;;;;7.85;100.00;99788.78;5045164;28;20024;-63
2023/01/01 04:58:59;;;;;;;20.60;12.98;;;;;;;7.83;100.00;99784.59;5040122;28;20037;-62
2023/01/01 05:01:27;;;;;;;25.40;14.65;;;;;;;7.88;100.00;99798.94;5044876;28;20029;-61
2023/01/01 05:03:54;;;;;;;20.40;13.75;;;;;;;8.00;100.00;99802.50;5047074;28;20421;-60
2023/01/01 05:06:20;;;;;;;24.05;13.55;;;;;;;7.93;100.00;99803.00;5025570;28;20586;-63
2023/01/01 05:08:47;;;;;;;22.08;14.45;;;;;;;7.94;100.00;99808.09;5047336;28;20052;-60
2023/01/01 05:11:18;;;;;;;20.23;12.55;;;;;;;7.80;100.00;99800.34;5044516;28;20109;-59
2023/01/01 05:13:46;;;;;;;23.30;14.98;;;;;;;7.85;100.00;99817.25;5031042;28;20365;-63
2023/01/01 05:16:13;;;;;;;22.08;13.85;;;;;;;7.85;100.00;99809.50;5047104;28;20039;-61
2023/01/01 05:18:40;;;;;;;22.27;13.63;;;;;;;7.65;100.00;99773.69;5042710;28;20997;-62
2023/01/01 05:21:12;;;;;;;23.30;13.27;;;;;;;7.89;100.00;99810.94;5031970;28;20434;-60
2023/01/01 05:23:39;;;;;;;21.38;14.38;;;;;;;7.85;100.00;99814.66;5039628;28;20029;-62
2023/01/01 05:26:09;;;;;;;22.10;13.55;;;;;;;7.83;100.00;99811.34;5063304;28;20093;-60
2023/01/01 05:28:35;;;;;;;23.25;14.38;;;;;;;7.50;100.00;99755.63;5043974;28;20033;-60
2023/01/01 05:31:05;;;;;;;25.30;14.65;;;;;;;7.90;100.00;99798.81;5029023;28;20055;-60
2023/01/01 05:33:30;;;;;;;23.10;14.45;;;;;;;7.84;100.00;99788.88;5042575;28;20036;-63
2023/01/01 05:35:55;;;;;;;25.27;14.82;;;;;;;7.80;100.00;99793.41;5041363;28;20022;-60
2023/01/01 05:38:21;;;;;;;22.17;13.95;;;;;;;7.86;100.00;99794.78;5046152;28;20036;-60
2023/01/01 05:40:46;;;;;;;23.58;15.10;;;;;;;7.91;100.00;99807.44;5057740;28;20507;-60
2023/01/01 05:43:12;;;;;;;23.58;13.90;;;;;;;7.91;100.00;99794.50;5041762;28;20039;-61
2023/01/01 05:45:37;;;;;;;26.15;15.15;;;;;;;7.87;100.00;99802.44;5044829;28;20112;-61
2023/01/01 05:48:05;;;;;;;23.25;14.30;;;;;;;7.85;100.00;99801.72;5029876;28;20032;-58
2023/01/01 05:50:31;;;;;;;24.67;14.63;;;;;;;7.91;100.00;99802.28;5060098;28;20024;-59
2023/01/01 05:52:56;;;;;;;22.95;14.13;;;;;;;7.93;100.00;99816.75;5045797;28;20043;-61
2023/01/01 05:55:22;;;;;;;24.27;14.32;;;;;;;7.78;100.00;99789.28;5045076;28;20133;-59
2023/01/01 05:57:47;;;;;;;22.63;14.57;;;;;;;8.00;100.00;99825.81;5025315;28;20031;-59
2023/01/01 06:00:13;;;;;;;22.80;14.57;;;;;;;8.10;100.00;99831.22;5038174;28;20028;-61
2023/01/01 06:02:39;;;;;;;21.13;13.95;;;;;;;8.03;100.00;99835.97;5028882;28;20032;-64
2023/01/01 06:05:04;;;;;;;23.10;13.98;;;;;;;8.03;100.00;99848.94;5027626;28;20476;-63
2023/01/01 06:07:30;;;;;;;24.45;14.20;;;;;;;7.91;100.00;99843.69;5029566;28;20031;-61
2023/01/01 06:09:55;;;;;;;23.35;14.35;;;;;;;8.04;100.00;99849.75;5049561;28;20391;-60
2023/01/01 06:12:21;;;;;;;25.90;14.52;;;;;;;8.05;100.00;99844.47;5029712;28;20028;-59
2023/01/01 06:14:46;;;;;;;23.00;13.65;;;;;;;7.97;100.00;99838.13;5042001;28;20036;-60
2023/01/01 06:17:12;;;;;;;24.02;14.73;;;;;;;8.02;100.00;99839.50;5045133;28;20058;-63
2023/01/01 06:19:37;;;;;;;22.80;13.63;;;;;;;8.00;100.00;99845.72;5055625;28;20025;-62
2023/01/01 06:22:02;;;;;;;24.67;14.18;;;;;;;7.98;100.00;99838.03;5043111;28;20120;-59
2023/01/01 06:24:28;;;;;;;21.45;13.13;;;;;;;8.00;100.00;99836.16;5066321;28;20024;-62
2023/01/01 06:26:53;;;;;;;21.98;12.57;;;;;;;8.08;100.00;99835.66;5066843;28;20103;-61
2023/01/01 06:29:19;;;;;;;21.13;13.00;;;;;;;8.04;100.00;99835.03;5032789;28;20020;-60
2023/01/01 06:31:44;;;;;;;23.20;13.45;;;;;;;7.80;100.00;99790.81;5048056;28;20028;-59
2023/01/01 06:34:09;;;;;;;24.38;14.32;;;;;;;7.83;100.00;99789.78;5033607;28;20027;-62
2023/01/01 06:36:35;;;;;;;20.65;12.98;;;;;;;8.04;100.00;99835.03;5053077;28;20392;-63
2023/01/01 06:39:02;;;;;;;23.80;14.13;;;;;;;8.01;100.00;99821.44;5048116;28;20032;-60
2023/01/01 06:41:28;;;;;;;20.42;13.32;;;;;;;8.17;100.00;99829.06;5047853;28;20035;-59
2023/01/01 06:43:54;;;;;;;21.95;13.85;;;;;;;8.20;100.00;99827.09;5036121;28;20024;-59
2023/01/01 06:46:26;;;;;;;23.80;13.82;;;;;;;8.12;100.00;99837.13;5060873;28;20033;-61
2023/01/01 06:48:56;;;;;;;21.98;14.60;;;;;;;7.87;100.00;99791.28;5061545;28;20032;-61
2023/01/01 06:51:27;;;;;;;22.48;13.35;;;;;;;8.11;100.00;99838.06;5032265;28;20024;-59
2023/01/01 06:53:53;;;;;;;23.02;14.48;;;;;;;8.13;100.00;99843.16;5047734;28;20379;-59
2023/01/01 06:56:19;;;;;;;23.60;14.88;;;;;;;8.13;100.00;99854.34;5047122;28;20044;-63
2023/01/01 06:58:45;;;;;;;26.13;15.13;;;;;;;7.87;100.00;99810.22;5048835;28;20494;-60
2023/01/01 07:01:17;;;;;;;23.38;14.88;;;;;;;8.15;100.00;99855.06;5029351;28;20079;-62
2023/01/01 07:03:43;;;;;;;22.45;14.20;;;;;;;8.12;100.00;99844.06;5047619;28;20034;-60
2023/01/01 07:06:10;;;;;;;20.20;13.45;;;;;;;8.16;100.00;99833.44;5037038;28;20546;-61
2023/01/01 07:08:35;;;;;;;25.52;13.93;;;;;;;8.02;100.00;99816.16;5043516;28;20040;-59
2023/01/01 07:11:02;;;;;;;23.73;13.90;;;;;;;8.18;100.00;99830.75;5031339;28;20755;-62
2023/01/01 07:13:28;;;;;;;24.73;15.02;;;;;;;7.91;100.00;99791.91;5045071;28;20098;-62
2023/01/01 07:15:54;;;;;;;23.92;14.75;;;;;;;8.18;100.00;99844.53;5046709;28;20032;-60
2023/01/01 07:18:21;;;;;;;23.02;14.85;;;;;;;8.23;100.00;99839.03;5044491;28;20021;-59
2023/01/01 07:20:53;;;;;;;22.92;14.52;;;;;;;8.26;100.00;99844.84;5044758;28;20119;-61
2023/01/01 07:23:19;;;;;;;23.35;14.20;;;;;;;8.28;100.00;99832.59;5043246;28;20032;-61
2023/01/01 07:25:45;;;;;;;23.23;14.98;;;;;;;7.94;100.00;99797.72;5045664;28;20387;-58
2023/01/01 07:28:11;;;;;;;24.48;15.40;;;;;;;8.13;100.00;99806.88;5030527;28;20052;-63
2023/01/01 07:30:37;;;;;;;22.77;14.13;;;;;;;8.29;100.00;99843.81;5067236;28;20071;-58
2023/01/01 07:33:02;;;;;;;25.45;14.98;;;;;;;8.27;100.00;99841.31;5046930;28;20107;-58
2023/01/01 07:35:28;;;;;;;24.27;14.15;;;;;;;8.03;100.00;99819.59;5047668;28;20024;-62
2023/01/01 07:37:53;;;;;;;22.33;13.65;;;;;;;8.17;100.00;99839.44;5044424;28;20048;-58
2023/01/01 07:40:19;;;;;;;23.13;14.32;;;;;;;8.19;100.00;99851.34;5044153;28;20040;-58
2023/01/01 07:42:44;;;;;;;24.52;13.90;;;;;;;8.22;100.00;99853.75;5046950;28;20035;-58
2023/01/01 07:45:11;;;;;;;22.60;14.27;;;;;;;8.21;100.00;99857.28;5029197;28;20485;-60
2023/01/01 07:47:37;;;;;;;25.00;14.75;;;;;;;8.28;100.00;99860.28;5023709;28;20360;-59
2023/01/01 07:50:02;;;;;;;23.10;13.68;;;;;;;8.01;100.00;99822.31;5043065;28;20028;-63
2023/01/01 07:52:28;;;;;;;22.90;14.35;;;;;;;8.13;100.00;99843.97;5027848;28;20083;-63
2023/01/01 07:54:53;;;;;;;23.80;15.07;;;;;;;7.80;100.00;99816.72;5031279;28;20672;-59
2023/01/01 07:57:19;;;;;;;28.50;14.82;;;;;;;8.07;100.00;99854.75;5046673;28;20028;-61
2023/01/01 07:59:44;;;;;;;24.52;14.88;;;;;;;8.14;100.00;99868.13;5032240;28;20119;-59
2023/01/01 08:02:13;;;;;;;22.83;14.68;;;;;;;8.04;100.00;99857.53;5062252;28;20116;-60
2023/01/01 08:04:38;;;;;;;21.75;14.40;;;;;;;8.09;100.00;99866.66;5025709;28;20182;-62
2023/01/01 08:07:04;;;;;;;21.67;13.93;;;;;;;8.16;100.00;99869.69;5045316;28;20622;-61
2023/01/01 08:09:30;;;;;;;24.33;14.85;;;;;;;8.11;100.00;99876.94;5044763;28;20032;-63
2023/01/01 08:11:57;;;;;;;26.58;14.52;;;;;;;8.14;100.00;99866.38;5039607;28;20032;-59
2023/01/01 08:14:23;;;;;;;25.60;14.63;;;;;;;8.15;100.00;99872.38;5039501;28;20060;-61
2023/01/01 08:16:48;;;;;;;23.77;14.63;;;;;;;8.11;100.00;99876.94;5035269;28;20035;-62
2023/01/01 08:19:14;;;;;;;23.48;14.65;;;;;;;8.09;100.00;99874.44;5045730;28;20800;-60
2023/01/01 08:21:40;;;;;;;21.38;14.10;;;;;;;8.12;100.00;99869.97;5030322;28;20032;-62
2023/01/01 08:24:05;;;;;;;24.27;15.55;;;;;;;8.10;100.00;99870.06;5063350;28;20032;-61
2023/01/01 08:26:33;;;;;;;22.63;13.85;;;;;;;8.17;100.00;99873.94;5046970;28;20021;-62
2023/01/01 08:29:01;;;;;;;22.00;14.35;;;;;;;8.09;100.00;99863.25;5066014;28;20104;-61
2023/01/01 08:31:26;;;;;;;25.83;14.93;;;;;;;8.08;100.00;99865.00;5060547;28;20021;-60
2023/01/01 08:33:52;;;;;;;25.27;15.27;;;;;;;7.99;100.00;99859.56;5044402;28;20040;-61
2023/01/01 08:36:19;;;;;;;21.92;14.38;;;;;;;8.05;100.00;99872.16;5030505;28;20124;-61
2023/01/01 08:38:45;;;;;;;24.65;15.38;;;;;;;7.97;100.00;99862.25;5046172;28;20108;-59
2023/01/01 08:41:10;;;;;;;24.63;14.73;;;;;;;7.96;100.00;99858.03;5044858;28;20029;-59
2023/01/01 08:43:36;;;;;;;27.17;14.77;;;;;;;7.79;100.00;99824.56;5065382;28;20034;-59
2023/01/01 08:46:01;;;;;;;24.48;15.00;;;;;;;8.02;100.00;99856.78;5040477;28;20525;-62
2023/01/01 08:48:27;;;;;;;24.52;15.07;;;;;;;8.08;100.00;99861.56;5056517;28;20029;-59
2023/01/01 08:50:53;;;;;;;25.42;14.88;;;;;;;8.03;100.00;99856.69;5060297;28;21278;-59
2023/01/01 08:53:19;;;;;;;25.52;15.27;;;;;;;8.09;100.00;99858.06;5029435;28;20041;-60
2023/01/01 08:55:44;;;;;;;24.42;14.05;;;;;;;8.09;100.00;99869.25;5043982;28;20089;-59
2023/01/01 08:58:10;;;;;;;23.48;14.75;;;;;;;7.86;100.00;99828.44;5047859;28;20106;-63
2023/01/01 09:00:35;;;;;;;28.33;15.30;;;;;;;8.11;100.00;99866.56;5044971;28;20415;-61
2023/01/01 09:03:00;;;;;;;25.23;15.00;;;;;;;8.07;100.00;99871.13;5045374;28;20463;-61
2023/01/01 09:05:26;;;;;;;24.45;14.98;;;;;;;8.10;100.00;99864.88;5041733;28;20024;-60
2023/01/01 09:07:51;;;;;;;23.02;15.05;;;;;;;7.87;100.00;99823.16;5045861;28;20028;-60
2023/01/01 09:10:17;;;;;;;24.35;14.98;;;;;;;8.14;100.00;99861.19;5066824;28;20033;-60
2023/01/01 09:12:42;;;;;;;26.90;14.85;;;;;;;8.16;100.00;99869.69;5058727;28;20037;-62
2023/01/01 09:15:15;;;;;;;25.65;15.60;;;;;;;8.17;100.00;99873.13;5058218;28;20117;-60
2023/01/01 09:17:41;;;;;;;27.67;15.23;;;;;;;8.19;100.00;99868.66;5044893;28;20031;-59
2023/01/01 09:20:07;;;;;;;28.23;15.75;;;;;;;8.12;100.00;99837.13;5044668;28;20037;-66
2023/01/01 09:22:33;;;;;;;24.60;15.15;;;;;;;8.32;100.00;99873.88;5056933;28;20604;-60
2023/01/01 09:24:58;;;;;;;27.42;15.65;;;;;;;8.31;100.00;99865.28;5062754;28;20024;-63
2023/01/01 09:27:24;;;;;;;24.95;13.45;;;;;;;8.31;100.00;99851.50;5026173;28;20033;-60
2023/01/01 09:29:49;;;;;;;23.30;13.32;;;;;;;8.34;100.00;99853.88;5044529;28;20029;-62
2023/01/01 09:32:15;;;;;;;25.55;13.75;;;;;;;8.35;100.00;99871.09;5062178;28;20032;-60
2023/01/01 09:34:40;;;;;;;25.13;15.50;;;;;;;8.36;100.00;99873.59;5044637;28;20104;-59
2023/01/01 09:37:06;;;;;;;25.52;16.10;;;;;;;8.28;100.00;99868.88;5064438;28;20837;-58
2023/01/01 09:39:32;;;;;;;25.85;16.30;;;;;;;8.36;100.00;99876.19;5037972;28;20025;-60
2023/01/01 09:42:06;;;;;;;32.08;16.67;;;;;;;8.45;100.00;99874.75;5045192;28;20032;-60
2023/01/01 09:45:09;;;;;;;22.35;14.73;;;;;;;8.42;100.00;99875.00;5042495;28;20100;-59
2023/01/01 09:47:40;;;;;;;25.35;13.45;;;;;;;8.39;100.00;99863.00;5038071;28;20479;-59
2023/01/01 09:50:26;;;;;;;23.75;14.63;;;;;;;8.22;100.00;99837.38;5041550;28;20071;-58
2023/01/01 09:52:57;;;;;;;21.35;13.57;;;;;;;8.42;100.00;99881.00;5040263;28;20035;-62
2023/01/01 09:55:57;;;;;;;21.50;13.00;;;;;;;8.43;100.00;99881.81;5043877;28;20476;-58
2023/01/01 09:58:26;;;;;;;;;;;;;;;8.38;100.00;99878.69;5036150;28;20024;-59
2023/01/01 10:00:54;;;;;;;19.83;12.23;;;;;;;8.42;100.00;99869.81;5058905;28;19916;-61
2023/01/01 10:03:39;;;;;;;25.67;15.10;;;;;;;8.45;100.00;99861.81;5028503;28;20039;-64
2023/01/01 10:06:17;;;;;;;22.15;13.18;;;;;;;8.46;100.00;99863.47;5042244;28;20043;-62
